Tunis, Tunisia
Current Conditions -  °F | °C
As of 6:30 PM on Saturday 27 Dec 2014 (Local Time) from DTTA Reporting Station
Few Clouds Few Clouds  
Wind Chill: 54°   Ceiling: Unl
Heat Index: 54°   Visibility: 6mi
Dew Point: 46°   Wind: 6mph
Humidity: 77%   Direction: 240°WSW
Pressure: 30.03"   Gusts: NA
Location:  36.84°N, 10.22°E
Report Text: DTTA 271730Z 24005KT 9999 FEW026 12/08 Q1017 NOSIG
Loading
Personal Weather Stations






























Interactive Weather Map New forecast layout! Learn more

10-Day Weather Forecast

Advertisements
Track Severe Weather on mobile